sensor_id;sensor_type;location;lat;lon;timestamp;pressure;altitude;pressure_sealevel;temperature;humidity
10712;BME280;5407;51.234;6.804;2024-01-30T00:01:11;102221.47;;;11.73;80.61
10712;BME280;5407;51.234;6.804;2024-01-30T00:03:44;102215.09;;;11.69;80.26
10712;BME280;5407;51.234;6.804;2024-01-30T00:06:18;102217.66;;;11.74;80.51
10712;BME280;5407;51.234;6.804;2024-01-30T00:08:49;102220.22;;;11.71;80.41
10712;BME280;5407;51.234;6.804;2024-01-30T00:11:24;102219.53;;;11.65;80.35
10712;BME280;5407;51.234;6.804;2024-01-30T00:13:56;102216.97;;;11.61;80.62
10712;BME280;5407;51.234;6.804;2024-01-30T00:16:46;102212.19;;;11.58;81.13
10712;BME280;5407;51.234;6.804;2024-01-30T00:19:36;102213.97;;;11.62;80.70
10712;BME280;5407;51.234;6.804;2024-01-30T00:22:06;102212.78;;;11.55;81.07
10712;BME280;5407;51.234;6.804;2024-01-30T00:24:58;102213.16;;;11.62;80.61
10712;BME280;5407;51.234;6.804;2024-01-30T00:27:52;102209.09;;;11.51;80.74
10712;BME280;5407;51.234;6.804;2024-01-30T00:30:30;102212.78;;;11.55;80.32
10712;BME280;5407;51.234;6.804;2024-01-30T00:36:57;102208.00;;;11.52;80.50
10712;BME280;5407;51.234;6.804;2024-01-30T00:39:34;102209.59;;;11.53;80.67
10712;BME280;5407;51.234;6.804;2024-01-30T00:42:07;102206.78;;;11.36;80.94
10712;BME280;5407;51.234;6.804;2024-01-30T00:44:40;102193.78;;;11.38;81.50
10712;BME280;5407;51.234;6.804;2024-01-30T00:47:11;102201.69;;;11.34;81.71
10712;BME280;5407;51.234;6.804;2024-01-30T00:49:44;102203.50;;;11.39;81.15
10712;BME280;5407;51.234;6.804;2024-01-30T00:52:29;102198.31;;;11.29;81.62
10712;BME280;5407;51.234;6.804;2024-01-30T00:55:28;102190.69;;;11.31;81.37
10712;BME280;5407;51.234;6.804;2024-01-30T01:02:38;102199.91;;;11.30;81.31
10712;BME280;5407;51.234;6.804;2024-01-30T01:09:18;102206.25;;;11.25;81.55
10712;BME280;5407;51.234;6.804;2024-01-30T01:16:45;102207.09;;;11.34;81.33
10712;BME280;5407;51.234;6.804;2024-01-30T01:29:04;102211.59;;;11.17;82.09
10712;BME280;5407;51.234;6.804;2024-01-30T01:31:49;102207.72;;;11.31;81.18
10712;BME280;5407;51.234;6.804;2024-01-30T01:34:31;102203.38;;;11.22;81.39
10712;BME280;5407;51.234;6.804;2024-01-30T01:37:03;102204.00;;;11.19;81.96
10712;BME280;5407;51.234;6.804;2024-01-30T01:39:37;102200.59;;;11.35;81.63
10712;BME280;5407;51.234;6.804;2024-01-30T01:42:22;102198.94;;;11.26;81.49
10712;BME280;5407;51.234;6.804;2024-01-30T01:44:56;102199.00;;;11.12;81.91
10712;BME280;5407;51.234;6.804;2024-01-30T01:47:35;102195.88;;;11.19;81.98
10712;BME280;5407;51.234;6.804;2024-01-30T01:50:03;102200.78;;;11.17;81.94
10712;BME280;5407;51.234;6.804;2024-01-30T01:52:33;102193.81;;;11.16;81.77
10712;BME280;5407;51.234;6.804;2024-01-30T01:55:01;102194.78;;;11.20;82.29
10712;BME280;5407;51.234;6.804;2024-01-30T01:57:34;102192.56;;;11.22;81.77
10712;BME280;5407;51.234;6.804;2024-01-30T02:00:05;102190.97;;;11.21;81.93
10712;BME280;5407;51.234;6.804;2024-01-30T02:02:37;102184.78;;;11.20;81.92
10712;BME280;5407;51.234;6.804;2024-01-30T02:05:09;102193.53;;;11.26;81.74
10712;BME280;5407;51.234;6.804;2024-01-30T02:07:41;102186.81;;;11.15;81.85
10712;BME280;5407;51.234;6.804;2024-01-30T02:10:11;102186.19;;;11.18;81.84
10712;BME280;5407;51.234;6.804;2024-01-30T02:12:40;102184.03;;;11.06;82.63
10712;BME280;5407;51.234;6.804;2024-01-30T02:15:13;102184.84;;;11.07;82.09
10712;BME280;5407;51.234;6.804;2024-01-30T02:17:49;102182.22;;;11.15;82.04
10712;BME280;5407;51.234;6.804;2024-01-30T02:20:17;102183.47;;;11.18;82.06
10712;BME280;5407;51.234;6.804;2024-01-30T02:22:49;102180.91;;;11.13;82.35
10712;BME280;5407;51.234;6.804;2024-01-30T02:25:40;102174.09;;;10.93;82.98
10712;BME280;5407;51.234;6.804;2024-01-30T02:28:31;102170.25;;;11.08;82.57
10712;BME280;5407;51.234;6.804;2024-01-30T02:31:03;102170.25;;;11.08;82.35
10712;BME280;5407;51.234;6.804;2024-01-30T02:33:41;102169.00;;;11.14;82.11
10712;BME280;5407;51.234;6.804;2024-01-30T02:44:18;102158.31;;;11.09;82.30
10712;BME280;5407;51.234;6.804;2024-01-30T02:47:10;102165.31;;;11.10;82.48
10712;BME280;5407;51.234;6.804;2024-01-30T02:50:12;102162.63;;;11.10;82.40
10712;BME280;5407;51.234;6.804;2024-01-30T02:52:57;102155.88;;;10.99;82.86
10712;BME280;5407;51.234;6.804;2024-01-30T02:55:50;102157.28;;;10.96;82.69
10712;BME280;5407;51.234;6.804;2024-01-30T02:58:52;102150.66;;;11.02;82.48
10712;BME280;5407;51.234;6.804;2024-01-30T03:04:49;102143.50;;;10.98;83.08
10712;BME280;5407;51.234;6.804;2024-01-30T03:07:16;102144.81;;;11.09;82.48
10712;BME280;5407;51.234;6.804;2024-01-30T03:09:47;102143.22;;;11.08;82.31
10712;BME280;5407;51.234;6.804;2024-01-30T03:16:04;102145.44;;;11.06;82.94
10712;BME280;5407;51.234;6.804;2024-01-30T03:18:41;102142.25;;;11.04;82.38
10712;BME280;5407;51.234;6.804;2024-01-30T03:21:28;102139.22;;;11.05;82.28
10712;BME280;5407;51.234;6.804;2024-01-30T03:24:22;102137.69;;;11.13;82.46
10712;BME280;5407;51.234;6.804;2024-01-30T03:26:57;102135.00;;;11.13;82.15
10712;BME280;5407;51.234;6.804;2024-01-30T03:29:39;102135.91;;;11.08;82.18
10712;BME280;5407;51.234;6.804;2024-01-30T03:32:10;102137.34;;;11.06;82.62
10712;BME280;5407;51.234;6.804;2024-01-30T03:34:38;102137.47;;;11.01;82.66
10712;BME280;5407;51.234;6.804;2024-01-30T03:37:13;102140.53;;;11.08;82.36
10712;BME280;5407;51.234;6.804;2024-01-30T03:39:55;102129.88;;;11.03;82.76
10712;BME280;5407;51.234;6.804;2024-01-30T03:42:25;102141.28;;;11.00;82.84
10712;BME280;5407;51.234;6.804;2024-01-30T03:44:59;102128.88;;;10.99;82.64
10712;BME280;5407;51.234;6.804;2024-01-30T03:47:26;102131.72;;;10.94;82.82
10712;BME280;5407;51.234;6.804;2024-01-30T03:51:00;102129.38;;;11.01;82.66
10712;BME280;5407;51.234;6.804;2024-01-30T03:56:48;102121.97;;;11.15;82.20
10712;BME280;5407;51.234;6.804;2024-01-30T04:01:18;102124.47;;;11.03;82.19
10712;BME280;5407;51.234;6.804;2024-01-30T04:04:03;102128.06;;;10.98;82.65
10712;BME280;5407;51.234;6.804;2024-01-30T04:06:05;102119.84;;;11.03;82.63
10712;BME280;5407;51.234;6.804;2024-01-30T04:08:53;102129.03;;;10.94;82.86
10712;BME280;5407;51.234;6.804;2024-01-30T04:11:20;102127.28;;;10.98;82.85
10712;BME280;5407;51.234;6.804;2024-01-30T04:17:18;102118.22;;;10.94;82.97
10712;BME280;5407;51.234;6.804;2024-01-30T04:19:48;102116.63;;;10.93;82.81
10712;BME280;5407;51.234;6.804;2024-01-30T04:22:39;102120.91;;;10.94;83.12
10712;BME280;5407;51.234;6.804;2024-01-30T04:25:28;102115.75;;;10.84;83.33
10712;BME280;5407;51.234;6.804;2024-01-30T04:31:50;102106.53;;;10.85;83.74
10712;BME280;5407;51.234;6.804;2024-01-30T04:35:02;102097.66;;;10.84;83.88
10712;BME280;5407;51.234;6.804;2024-01-30T04:37:30;102098.56;;;10.80;84.18
10712;BME280;5407;51.234;6.804;2024-01-30T04:41:29;102100.63;;;10.74;84.09
10712;BME280;5407;51.234;6.804;2024-01-30T04:43:31;102105.91;;;10.88;83.73
10712;BME280;5407;51.234;6.804;2024-01-30T04:49:38;102105.56;;;10.81;84.26
10712;BME280;5407;51.234;6.804;2024-01-30T04:52:28;102113.19;;;10.79;84.16
10712;BME280;5407;51.234;6.804;2024-01-30T04:59:02;102111.22;;;10.71;84.43
10712;BME280;5407;51.234;6.804;2024-01-30T05:02:15;102113.78;;;10.76;84.49
10712;BME280;5407;51.234;6.804;2024-01-30T05:05:03;102106.50;;;10.76;84.72
10712;BME280;5407;51.234;6.804;2024-01-30T05:07:38;102103.84;;;10.85;84.32
10712;BME280;5407;51.234;6.804;2024-01-30T05:10:13;102099.25;;;10.85;84.39
10712;BME280;5407;51.234;6.804;2024-01-30T05:12:45;102099.19;;;10.77;84.52
10712;BME280;5407;51.234;6.804;2024-01-30T05:19:07;102100.78;;;10.78;84.43
10712;BME280;5407;51.234;6.804;2024-01-30T05:25:17;102094.00;;;10.80;84.61
10712;BME280;5407;51.234;6.804;2024-01-30T05:27:56;102092.03;;;10.72;84.65
10712;BME280;5407;51.234;6.804;2024-01-30T05:30:23;102100.16;;;10.81;84.42
10712;BME280;5407;51.234;6.804;2024-01-30T05:40:15;102097.59;;;10.76;84.84
10712;BME280;5407;51.234;6.804;2024-01-30T06:05:17;102084.50;;;10.61;85.37
10712;BME280;5407;51.234;6.804;2024-01-30T06:08:01;102089.28;;;10.64;85.35
10712;BME280;5407;51.234;6.804;2024-01-30T06:11:10;102092.81;;;10.73;85.08
10712;BME280;5407;51.234;6.804;2024-01-30T06:17:51;102097.50;;;10.59;85.67
10712;BME280;5407;51.234;6.804;2024-01-30T06:20:20;102092.09;;;10.59;85.59
10712;BME280;5407;51.234;6.804;2024-01-30T06:22:47;102093.44;;;10.70;84.88
10712;BME280;5407;51.234;6.804;2024-01-30T06:25:14;102089.63;;;10.71;85.02
10712;BME280;5407;51.234;6.804;2024-01-30T06:27:42;102094.25;;;10.70;85.19
10712;BME280;5407;51.234;6.804;2024-01-30T06:30:10;102086.44;;;10.69;84.84
10712;BME280;5407;51.234;6.804;2024-01-30T06:32:37;102082.63;;;10.70;84.83
10712;BME280;5407;51.234;6.804;2024-01-30T06:35:05;102075.84;;;10.72;84.87
10712;BME280;5407;51.234;6.804;2024-01-30T06:37:33;102071.84;;;10.70;84.91
10712;BME280;5407;51.234;6.804;2024-01-30T06:40:00;102077.97;;;10.62;85.21
10712;BME280;5407;51.234;6.804;2024-01-30T06:42:27;102078.84;;;10.71;84.92
10712;BME280;5407;51.234;6.804;2024-01-30T06:44:54;102082.63;;;10.70;84.92
10712;BME280;5407;51.234;6.804;2024-01-30T06:47:21;102081.84;;;10.69;84.96
10712;BME280;5407;51.234;6.804;2024-01-30T06:49:48;102082.22;;;10.76;84.72
10712;BME280;5407;51.234;6.804;2024-01-30T06:52:15;102082.84;;;10.73;85.13
10712;BME280;5407;51.234;6.804;2024-01-30T06:54:43;102090.31;;;10.76;84.90
10712;BME280;5407;51.234;6.804;2024-01-30T06:57:10;102094.25;;;10.70;85.26
10712;BME280;5407;51.234;6.804;2024-01-30T06:59:39;102097.38;;;10.64;85.66
10712;BME280;5407;51.234;6.804;2024-01-30T07:02:08;102108.66;;;10.66;85.01
10712;BME280;5407;51.234;6.804;2024-01-30T07:04:35;102106.44;;;10.68;84.91
10712;BME280;5407;51.234;6.804;2024-01-30T07:07:04;102112.03;;;10.71;85.12
10712;BME280;5407;51.234;6.804;2024-01-30T07:09:37;102110.00;;;10.77;84.97
10712;BME280;5407;51.234;6.804;2024-01-30T07:12:06;102103.63;;;10.73;85.27
10712;BME280;5407;51.234;6.804;2024-01-30T07:14:33;102096.63;;;10.72;85.44
10712;BME280;5407;51.234;6.804;2024-01-30T07:17:00;102096.34;;;10.82;84.90
10712;BME280;5407;51.234;6.804;2024-01-30T07:19:27;102099.56;;;10.84;85.02
10712;BME280;5407;51.234;6.804;2024-01-30T07:21:54;102098.56;;;10.80;84.81
10712;BME280;5407;51.234;6.804;2024-01-30T07:24:20;102112.56;;;10.82;85.04
10712;BME280;5407;51.234;6.804;2024-01-30T07:26:47;102110.19;;;10.80;84.76
10712;BME280;5407;51.234;6.804;2024-01-30T07:29:15;102109.00;;;10.73;85.45
10712;BME280;5407;51.234;6.804;2024-01-30T07:31:43;102116.84;;;10.83;85.16
10712;BME280;5407;51.234;6.804;2024-01-30T07:34:10;102112.75;;;10.85;85.22
10712;BME280;5407;51.234;6.804;2024-01-30T07:36:37;102116.00;;;10.74;85.41
10712;BME280;5407;51.234;6.804;2024-01-30T07:39:03;102110.53;;;10.87;85.23
10712;BME280;5407;51.234;6.804;2024-01-30T07:41:30;102113.53;;;10.86;85.23
10712;BME280;5407;51.234;6.804;2024-01-30T07:43:58;102117.72;;;10.92;84.96
10712;BME280;5407;51.234;6.804;2024-01-30T07:46:26;102124.09;;;10.96;84.71
10712;BME280;5407;51.234;6.804;2024-01-30T07:48:53;102118.38;;;10.97;84.62
10712;BME280;5407;51.234;6.804;2024-01-30T07:51:21;102127.28;;;10.98;84.75
10712;BME280;5407;51.234;6.804;2024-01-30T07:53:48;102135.88;;;11.00;84.02
10712;BME280;5407;51.234;6.804;2024-01-30T08:03:47;102140.03;;;11.06;84.58
10712;BME280;5407;51.234;6.804;2024-01-30T08:06:14;102143.84;;;11.05;84.80
10712;BME280;5407;51.234;6.804;2024-01-30T08:08:40;102139.06;;;11.02;84.62
10712;BME280;5407;51.234;6.804;2024-01-30T08:11:07;102137.47;;;11.01;84.88
10712;BME280;5407;51.234;6.804;2024-01-30T08:13:34;102146.00;;;11.16;84.42
10712;BME280;5407;51.234;6.804;2024-01-30T08:16:01;102143.78;;;11.18;83.94
10712;BME280;5407;51.234;6.804;2024-01-30T08:18:28;102142.75;;;11.06;84.28
10712;BME280;5407;51.234;6.804;2024-01-30T08:20:56;102147.69;;;11.12;84.27
10712;BME280;5407;51.234;6.804;2024-01-30T08:23:23;102146.72;;;11.08;84.33
10712;BME280;5407;51.234;6.804;2024-01-30T08:25:50;102147.53;;;11.09;84.39
10712;BME280;5407;51.234;6.804;2024-01-30T08:28:17;102149.91;;;11.10;84.28
10712;BME280;5407;51.234;6.804;2024-01-30T08:30:43;102146.41;;;11.10;84.26
10712;BME280;5407;51.234;6.804;2024-01-30T08:33:10;102153.78;;;11.18;84.26
10712;BME280;5407;51.234;6.804;2024-01-30T08:35:37;102157.16;;;11.23;83.86
10712;BME280;5407;51.234;6.804;2024-01-30T08:38:05;102163.59;;;11.14;83.83
10712;BME280;5407;51.234;6.804;2024-01-30T08:40:32;102160.97;;;11.22;83.80
10712;BME280;5407;51.234;6.804;2024-01-30T08:42:59;102163.69;;;11.31;83.35
10712;BME280;5407;51.234;6.804;2024-01-30T08:45:26;102164.50;;;11.31;82.82
10712;BME280;5407;51.234;6.804;2024-01-30T08:47:53;102162.97;;;11.39;83.07
10712;BME280;5407;51.234;6.804;2024-01-30T08:50:20;102170.06;;;11.35;82.99
10712;BME280;5407;51.234;6.804;2024-01-30T08:52:46;102171.16;;;11.34;82.91
10712;BME280;5407;51.234;6.804;2024-01-30T08:55:15;102170.56;;;11.37;82.62
10712;BME280;5407;51.234;6.804;2024-01-30T08:57:42;102175.03;;;11.41;82.47
10712;BME280;5407;51.234;6.804;2024-01-30T09:00:09;102185.75;;;11.55;82.13
10712;BME280;5407;51.234;6.804;2024-01-30T09:02:36;102179.53;;;11.46;82.41
10712;BME280;5407;51.234;6.804;2024-01-30T09:05:04;102181.28;;;11.50;82.64
10712;BME280;5407;51.234;6.804;2024-01-30T09:07:30;102187.00;;;11.49;82.50
10712;BME280;5407;51.234;6.804;2024-01-30T09:09:57;102189.16;;;11.60;82.05
10712;BME280;5407;51.234;6.804;2024-01-30T09:12:25;102188.06;;;11.69;81.55
10712;BME280;5407;51.234;6.804;2024-01-30T09:14:52;102192.38;;;11.70;81.38
10712;BME280;5407;51.234;6.804;2024-01-30T09:17:20;102188.56;;;11.71;81.57
10712;BME280;5407;51.234;6.804;2024-01-30T09:19:47;102191.59;;;11.78;81.12
10712;BME280;5407;51.234;6.804;2024-01-30T09:22:14;102195.41;;;11.77;80.92
10712;BME280;5407;51.234;6.804;2024-01-30T09:24:41;102194.53;;;11.90;81.20
10712;BME280;5407;51.234;6.804;2024-01-30T09:27:07;102193.38;;;11.83;80.66
10712;BME280;5407;51.234;6.804;2024-01-30T09:29:36;102196.38;;;11.81;80.79
10712;BME280;5407;51.234;6.804;2024-01-30T09:32:04;102199.94;;;11.90;80.60
10712;BME280;5407;51.234;6.804;2024-01-30T09:34:32;102208.25;;;12.02;79.85
10712;BME280;5407;51.234;6.804;2024-01-30T09:36:59;102201.41;;;12.05;79.93
10712;BME280;5407;51.234;6.804;2024-01-30T09:39:26;102206.66;;;12.01;80.01
10712;BME280;5407;51.234;6.804;2024-01-30T09:42:02;102212.91;;;12.19;79.36
10712;BME280;5407;51.234;6.804;2024-01-30T09:44:29;102204.28;;;12.08;79.38
10712;BME280;5407;51.234;6.804;2024-01-30T09:46:58;102213.69;;;12.19;79.49
10712;BME280;5407;51.234;6.804;2024-01-30T09:49:30;102208.28;;;12.19;78.68
10712;BME280;5407;51.234;6.804;2024-01-30T09:51:58;102203.19;;;12.18;79.30
10712;BME280;5407;51.234;6.804;2024-01-30T09:54:25;102205.72;;;12.14;79.54
10712;BME280;5407;51.234;6.804;2024-01-30T09:56:52;102196.25;;;12.42;78.27
10712;BME280;5407;51.234;6.804;2024-01-30T09:59:19;102206.09;;;12.38;77.94
10712;BME280;5407;51.234;6.804;2024-01-30T10:01:45;102204.34;;;12.42;78.23
10712;BME280;5407;51.234;6.804;2024-01-30T10:04:14;102203.75;;;12.54;77.61
10712;BME280;5407;51.234;6.804;2024-01-30T10:06:41;102216.00;;;12.51;77.38
10712;BME280;5407;51.234;6.804;2024-01-30T10:09:08;102214.72;;;12.57;77.20
10712;BME280;5407;51.234;6.804;2024-01-30T10:11:36;102213.59;;;12.58;77.83
10712;BME280;5407;51.234;6.804;2024-01-30T10:14:03;102215.84;;;12.65;77.21
10712;BME280;5407;51.234;6.804;2024-01-30T10:16:30;102213.91;;;12.48;77.32
10712;BME280;5407;51.234;6.804;2024-01-30T10:18:56;102216.31;;;12.75;77.03
10712;BME280;5407;51.234;6.804;2024-01-30T10:21:25;102218.53;;;12.73;76.97
10712;BME280;5407;51.234;6.804;2024-01-30T10:23:52;102218.69;;;12.68;76.40
10712;BME280;5407;51.234;6.804;2024-01-30T10:26:19;102215.34;;;12.54;76.51
10712;BME280;5407;51.234;6.804;2024-01-30T10:28:46;102215.00;;;12.30;78.76
10712;BME280;5407;51.234;6.804;2024-01-30T10:31:16;102210.38;;;12.31;78.57
10712;BME280;5407;51.234;6.804;2024-01-30T10:33:44;102205.16;;;12.51;77.22
10712;BME280;5407;51.234;6.804;2024-01-30T10:36:13;102202.63;;;12.63;77.25
10712;BME280;5407;51.234;6.804;2024-01-30T10:38:43;102211.84;;;12.45;77.30
10712;BME280;5407;51.234;6.804;2024-01-30T10:41:12;102201.34;;;12.61;77.65
10712;BME280;5407;51.234;6.804;2024-01-30T10:43:41;102206.13;;;12.72;76.61
10712;BME280;5407;51.234;6.804;2024-01-30T10:46:11;102209.16;;;12.88;76.41
10712;BME280;5407;51.234;6.804;2024-01-30T10:48:43;102213.47;;;12.80;76.61
10712;BME280;5407;51.234;6.804;2024-01-30T10:51:11;102215.22;;;12.85;76.23
10712;BME280;5407;51.234;6.804;2024-01-30T10:53:39;102213.78;;;13.04;75.35
10712;BME280;5407;51.234;6.804;2024-01-30T10:56:08;102214.75;;;13.08;75.33
10712;BME280;5407;51.234;6.804;2024-01-30T10:58:36;102212.38;;;13.07;75.17
10712;BME280;5407;51.234;6.804;2024-01-30T11:01:04;102207.59;;;13.04;75.69
10712;BME280;5407;51.234;6.804;2024-01-30T11:03:32;102202.31;;;13.07;75.34
10712;BME280;5407;51.234;6.804;2024-01-30T11:06:02;102211.88;;;13.13;74.86
10712;BME280;5407;51.234;6.804;2024-01-30T11:08:32;102218.56;;;13.07;75.85
10712;BME280;5407;51.234;6.804;2024-01-30T11:10:59;102222.53;;;13.35;74.75
10712;BME280;5407;51.234;6.804;2024-01-30T11:13:30;102220.47;;;13.32;74.17
10712;BME280;5407;51.234;6.804;2024-01-30T11:16:00;102215.03;;;13.15;74.99
10712;BME280;5407;51.234;6.804;2024-01-30T11:18:29;102218.22;;;13.17;75.20
10712;BME280;5407;51.234;6.804;2024-01-30T11:20:57;102216.81;;;13.28;74.59
10712;BME280;5407;51.234;6.804;2024-01-30T11:23:26;102224.59;;;13.29;74.59
10712;BME280;5407;51.234;6.804;2024-01-30T11:25:53;102221.75;;;13.26;74.83
10712;BME280;5407;51.234;6.804;2024-01-30T11:28:21;102219.81;;;13.26;74.82
10712;BME280;5407;51.234;6.804;2024-01-30T11:30:50;102210.25;;;13.29;75.56
10712;BME280;5407;51.234;6.804;2024-01-30T11:33:27;102216.47;;;13.29;74.95
10712;BME280;5407;51.234;6.804;2024-01-30T11:35:57;102208.34;;;13.29;75.18
10712;BME280;5407;51.234;6.804;2024-01-30T11:38:25;102208.50;;;13.33;75.00
10712;BME280;5407;51.234;6.804;2024-01-30T11:40:53;102215.84;;;13.24;76.07
10712;BME280;5407;51.234;6.804;2024-01-30T11:43:20;102213.16;;;13.15;76.74
10712;BME280;5407;51.234;6.804;2024-01-30T11:45:48;102213.16;;;13.24;76.23
10712;BME280;5407;51.234;6.804;2024-01-30T11:48:16;102212.81;;;13.25;76.16
10712;BME280;5407;51.234;6.804;2024-01-30T11:50:43;102213.75;;;13.21;76.95
10712;BME280;5407;51.234;6.804;2024-01-30T11:53:11;102215.84;;;13.24;76.53
10712;BME280;5407;51.234;6.804;2024-01-30T11:55:38;102211.56;;;13.23;76.93
10712;BME280;5407;51.234;6.804;2024-01-30T11:58:05;102219.19;;;13.21;76.61
10712;BME280;5407;51.234;6.804;2024-01-30T12:00:32;102217.41;;;13.33;76.79
10712;BME280;5407;51.234;6.804;2024-01-30T12:02:59;102217.59;;;13.20;77.50
10712;BME280;5407;51.234;6.804;2024-01-30T12:05:29;102215.03;;;13.32;77.44
10712;BME280;5407;51.234;6.804;2024-01-30T12:07:56;102208.50;;;13.33;77.69
10712;BME280;5407;51.234;6.804;2024-01-30T12:10:24;102213.91;;;13.24;78.37
10712;BME280;5407;51.234;6.804;2024-01-30T12:12:52;102213.75;;;13.38;77.42
10712;BME280;5407;51.234;6.804;2024-01-30T12:15:22;102214.19;;;13.48;76.89
10712;BME280;5407;51.234;6.804;2024-01-30T12:17:49;102209.91;;;13.39;78.12
10712;BME280;5407;51.234;6.804;2024-01-30T12:20:18;102207.50;;;13.37;78.33
10712;BME280;5407;51.234;6.804;2024-01-30T12:22:49;102205.78;;;13.33;78.83
10712;BME280;5407;51.234;6.804;2024-01-30T12:25:18;102200.38;;;13.33;79.72
10712;BME280;5407;51.234;6.804;2024-01-30T12:27:49;102205.44;;;13.43;79.59
10712;BME280;5407;51.234;6.804;2024-01-30T12:30:17;102203.53;;;13.35;80.59
10712;BME280;5407;51.234;6.804;2024-01-30T12:32:46;102204.19;;;13.32;81.33
10712;BME280;5407;51.234;6.804;2024-01-30T12:35:13;102197.97;;;13.31;83.22
10712;BME280;5407;51.234;6.804;2024-01-30T12:37:41;102196.19;;;13.44;82.68
10712;BME280;5407;51.234;6.804;2024-01-30T12:40:11;102198.72;;;13.49;83.00
10712;BME280;5407;51.234;6.804;2024-01-30T12:42:40;102200.00;;;13.43;84.20
10712;BME280;5407;51.234;6.804;2024-01-30T12:45:08;102201.91;;;13.51;84.40
10712;BME280;5407;51.234;6.804;2024-01-30T12:47:35;102208.13;;;13.51;84.93
10712;BME280;5407;51.234;6.804;2024-01-30T12:50:03;102205.06;;;13.53;85.88
10712;BME280;5407;51.234;6.804;2024-01-30T12:52:30;102205.06;;;13.53;86.65
10712;BME280;5407;51.234;6.804;2024-01-30T12:54:57;102210.22;;;13.46;87.25
10712;BME280;5407;51.234;6.804;2024-01-30T12:57:25;102204.16;;;14.24;85.75
10712;BME280;5407;51.234;6.804;2024-01-30T12:59:52;102210.00;;;13.97;85.09
10712;BME280;5407;51.234;6.804;2024-01-30T13:02:19;102199.66;;;13.53;87.68
10712;BME280;5407;51.234;6.804;2024-01-30T13:04:47;102203.00;;;13.58;87.97
10712;BME280;5407;51.234;6.804;2024-01-30T13:07:13;102210.03;;;13.42;90.04
10712;BME280;5407;51.234;6.804;2024-01-30T13:09:40;102214.34;;;13.52;88.95
10712;BME280;5407;51.234;6.804;2024-01-30T13:12:07;102222.66;;;13.47;89.30
10712;BME280;5407;51.234;6.804;2024-01-30T13:14:36;102224.22;;;13.56;89.14
10712;BME280;5407;51.234;6.804;2024-01-30T13:17:03;102229.00;;;13.51;88.69
10712;BME280;5407;51.234;6.804;2024-01-30T13:19:30;102236.03;;;13.52;89.37
10712;BME280;5407;51.234;6.804;2024-01-30T13:21:57;102230.78;;;13.47;89.41
10712;BME280;5407;51.234;6.804;2024-01-30T13:24:24;102237.25;;;13.63;89.05
10712;BME280;5407;51.234;6.804;2024-01-30T13:26:51;102232.72;;;13.46;89.18
10712;BME280;5407;51.234;6.804;2024-01-30T13:29:18;102236.84;;;13.44;89.86
10712;BME280;5407;51.234;6.804;2024-01-30T13:31:46;102235.72;;;13.45;90.11
10712;BME280;5407;51.234;6.804;2024-01-30T13:34:13;102230.97;;;13.33;90.38
10712;BME280;5407;51.234;6.804;2024-01-30T13:36:40;102241.59;;;13.55;89.42
10712;BME280;5407;51.234;6.804;2024-01-30T13:39:07;102234.09;;;13.61;88.59
10712;BME280;5407;51.234;6.804;2024-01-30T13:41:36;102242.25;;;13.52;88.84
10712;BME280;5407;51.234;6.804;2024-01-30T13:44:03;102237.44;;;13.66;88.44
10712;BME280;5407;51.234;6.804;2024-01-30T13:46:30;102238.09;;;13.55;88.83
10712;BME280;5407;51.234;6.804;2024-01-30T13:48:58;102230.91;;;13.59;89.23
10712;BME280;5407;51.234;6.804;2024-01-30T13:51:25;102232.50;;;13.60;88.37
10712;BME280;5407;51.234;6.804;2024-01-30T13:53:52;102230.59;;;13.52;89.44
10712;BME280;5407;51.234;6.804;2024-01-30T13:56:19;102241.25;;;13.65;89.14
10712;BME280;5407;51.234;6.804;2024-01-30T13:58:48;102243.31;;;13.77;88.68
10712;BME280;5407;51.234;6.804;2024-01-30T14:01:15;102241.88;;;13.71;88.53
10712;BME280;5407;51.234;6.804;2024-01-30T14:03:42;102238.38;;;13.70;88.61
10712;BME280;5407;51.234;6.804;2024-01-30T14:06:11;102238.75;;;13.43;90.11
10712;BME280;5407;51.234;6.804;2024-01-30T14:08:38;102244.63;;;13.54;89.27
10712;BME280;5407;51.234;6.804;2024-01-30T14:11:04;102240.50;;;13.48;89.33
10712;BME280;5407;51.234;6.804;2024-01-30T14:13:32;102236.94;;;13.73;88.72
10712;BME280;5407;51.234;6.804;2024-01-30T14:16:00;102228.81;;;13.64;88.73
10712;BME280;5407;51.234;6.804;2024-01-30T14:18:26;102235.34;;;13.72;88.50
10712;BME280;5407;51.234;6.804;2024-01-30T14:20:53;102229.94;;;13.63;89.16
10712;BME280;5407;51.234;6.804;2024-01-30T14:23:22;102234.72;;;13.58;88.95
10712;BME280;5407;51.234;6.804;2024-01-30T14:25:49;102234.38;;;13.68;88.88
10712;BME280;5407;51.234;6.804;2024-01-30T14:28:18;102238.19;;;13.67;88.71
10712;BME280;5407;51.234;6.804;2024-01-30T14:30:45;102244.81;;;13.95;87.12
10712;BME280;5407;51.234;6.804;2024-01-30T14:33:12;102254.00;;;14.11;85.64
10712;BME280;5407;51.234;6.804;2024-01-30T14:35:39;102245.47;;;13.92;85.85
10712;BME280;5407;51.234;6.804;2024-01-30T14:38:06;102240.72;;;13.80;86.79
10712;BME280;5407;51.234;6.804;2024-01-30T14:40:35;102245.38;;;13.80;86.28
10712;BME280;5407;51.234;6.804;2024-01-30T14:43:02;102252.28;;;13.69;87.55
10712;BME280;5407;51.234;6.804;2024-01-30T14:45:29;102252.50;;;13.93;86.20
10712;BME280;5407;51.234;6.804;2024-01-30T14:47:57;102253.13;;;13.90;85.63
10712;BME280;5407;51.234;6.804;2024-01-30T14:50:25;102254.19;;;13.60;87.39
10712;BME280;5407;51.234;6.804;2024-01-30T14:52:52;102257.69;;;13.69;87.13
10712;BME280;5407;51.234;6.804;2024-01-30T14:55:19;102263.25;;;13.72;86.75
10712;BME280;5407;51.234;6.804;2024-01-30T14:57:47;102267.91;;;13.63;86.83
10712;BME280;5407;51.234;6.804;2024-01-30T15:00:15;102271.44;;;13.47;87.00
10712;BME280;5407;51.234;6.804;2024-01-30T15:02:42;102267.44;;;13.61;85.58
10712;BME280;5407;51.234;6.804;2024-01-30T15:05:09;102269.22;;;13.49;85.94
10712;BME280;5407;51.234;6.804;2024-01-30T15:07:37;102268.75;;;13.38;87.37
10712;BME280;5407;51.234;6.804;2024-01-30T15:10:04;102288.53;;;13.47;86.50
10712;BME280;5407;51.234;6.804;2024-01-30T15:12:31;102282.81;;;13.32;86.77